sensor_id;sensor_type;location;lat;lon;timestamp;P1;durP1;ratioP1;P2;durP2;ratioP2
4533;SDS011;2279;51.448;7.306;2023-12-20T00:00:07;43.63;;;38.13;;
4533;SDS011;2279;51.448;7.306;2023-12-20T00:02:33;41.67;;;35.15;;
4533;SDS011;2279;51.448;7.306;2023-12-20T00:05:00;40.35;;;35.47;;
4533;SDS011;2279;51.448;7.306;2023-12-20T00:07:26;37.07;;;33.33;;
4533;SDS011;2279;51.448;7.306;2023-12-20T00:09:51;43.07;;;38.17;;
4533;SDS011;2279;51.448;7.306;2023-12-20T00:12:17;40.00;;;35.83;;
4533;SDS011;2279;51.448;7.306;2023-12-20T00:14:43;23.90;;;21.73;;
4533;SDS011;2279;51.448;7.306;2023-12-20T00:17:09;12.73;;;11.53;;
4533;SDS011;2279;51.448;7.306;2023-12-20T00:19:35;20.70;;;18.90;;
4533;SDS011;2279;51.448;7.306;2023-12-20T00:22:01;13.00;;;11.83;;
4533;SDS011;2279;51.448;7.306;2023-12-20T00:24:27;15.93;;;14.52;;
4533;SDS011;2279;51.448;7.306;2023-12-20T00:26:53;29.20;;;27.10;;
4533;SDS011;2279;51.448;7.306;2023-12-20T00:29:19;38.88;;;34.78;;
4533;SDS011;2279;51.448;7.306;2023-12-20T00:31:45;37.83;;;34.03;;
4533;SDS011;2279;51.448;7.306;2023-12-20T00:34:11;35.90;;;32.30;;
4533;SDS011;2279;51.448;7.306;2023-12-20T00:36:37;31.47;;;28.77;;
4533;SDS011;2279;51.448;7.306;2023-12-20T00:39:03;78.97;;;36.50;;
4533;SDS011;2279;51.448;7.306;2023-12-20T00:41:29;45.53;;;40.70;;
4533;SDS011;2279;51.448;7.306;2023-12-20T00:43:55;19.00;;;17.47;;
4533;SDS011;2279;51.448;7.306;2023-12-20T00:46:21;13.70;;;12.43;;
4533;SDS011;2279;51.448;7.306;2023-12-20T00:48:47;26.00;;;23.57;;
4533;SDS011;2279;51.448;7.306;2023-12-20T00:51:13;36.33;;;33.33;;
4533;SDS011;2279;51.448;7.306;2023-12-20T00:53:39;31.92;;;29.65;;
4533;SDS011;2279;51.448;7.306;2023-12-20T00:56:05;14.27;;;13.07;;
4533;SDS011;2279;51.448;7.306;2023-12-20T00:58:31;29.45;;;26.85;;
4533;SDS011;2279;51.448;7.306;2023-12-20T01:00:57;14.87;;;13.47;;
4533;SDS011;2279;51.448;7.306;2023-12-20T01:03:23;18.13;;;16.52;;
4533;SDS011;2279;51.448;7.306;2023-12-20T01:05:49;19.52;;;18.13;;
4533;SDS011;2279;51.448;7.306;2023-12-20T01:08:15;31.45;;;28.95;;
4533;SDS011;2279;51.448;7.306;2023-12-20T01:10:41;16.00;;;14.57;;
4533;SDS011;2279;51.448;7.306;2023-12-20T01:13:07;12.93;;;11.73;;
4533;SDS011;2279;51.448;7.306;2023-12-20T01:15:33;37.45;;;33.80;;
4533;SDS011;2279;51.448;7.306;2023-12-20T01:17:59;31.93;;;28.67;;
4533;SDS011;2279;51.448;7.306;2023-12-20T01:20:26;25.98;;;23.38;;
4533;SDS011;2279;51.448;7.306;2023-12-20T01:22:52;35.73;;;29.73;;
4533;SDS011;2279;51.448;7.306;2023-12-20T01:25:18;32.83;;;29.35;;
4533;SDS011;2279;51.448;7.306;2023-12-20T01:27:44;37.33;;;30.27;;
4533;SDS011;2279;51.448;7.306;2023-12-20T01:30:10;47.33;;;33.27;;
4533;SDS011;2279;51.448;7.306;2023-12-20T01:32:36;47.30;;;32.35;;
4533;SDS011;2279;51.448;7.306;2023-12-20T01:35:02;51.43;;;38.10;;
4533;SDS011;2279;51.448;7.306;2023-12-20T01:37:28;41.67;;;30.98;;
4533;SDS011;2279;51.448;7.306;2023-12-20T01:39:54;22.77;;;20.98;;
4533;SDS011;2279;51.448;7.306;2023-12-20T01:42:20;13.00;;;11.85;;
4533;SDS011;2279;51.448;7.306;2023-12-20T01:44:47;19.77;;;18.00;;
4533;SDS011;2279;51.448;7.306;2023-12-20T01:47:13;30.87;;;27.83;;
4533;SDS011;2279;51.448;7.306;2023-12-20T01:49:39;18.50;;;16.97;;
4533;SDS011;2279;51.448;7.306;2023-12-20T01:52:05;17.35;;;15.70;;
4533;SDS011;2279;51.448;7.306;2023-12-20T01:54:31;33.55;;;30.23;;
4533;SDS011;2279;51.448;7.306;2023-12-20T01:56:57;20.93;;;17.30;;
4533;SDS011;2279;51.448;7.306;2023-12-20T01:59:23;27.90;;;25.83;;
4533;SDS011;2279;51.448;7.306;2023-12-20T02:01:49;11.37;;;10.30;;
4533;SDS011;2279;51.448;7.306;2023-12-20T02:04:15;32.10;;;29.60;;
4533;SDS011;2279;51.448;7.306;2023-12-20T02:06:42;37.70;;;34.17;;
4533;SDS011;2279;51.448;7.306;2023-12-20T02:09:08;29.95;;;27.67;;
4533;SDS011;2279;51.448;7.306;2023-12-20T02:11:34;20.77;;;19.08;;
4533;SDS011;2279;51.448;7.306;2023-12-20T02:14:00;21.85;;;19.90;;
4533;SDS011;2279;51.448;7.306;2023-12-20T02:16:26;13.80;;;12.63;;
4533;SDS011;2279;51.448;7.306;2023-12-20T02:18:52;36.87;;;33.47;;
4533;SDS011;2279;51.448;7.306;2023-12-20T02:21:20;34.90;;;31.40;;
4533;SDS011;2279;51.448;7.306;2023-12-20T02:23:45;45.80;;;37.53;;
4533;SDS011;2279;51.448;7.306;2023-12-20T02:26:11;44.15;;;31.30;;
4533;SDS011;2279;51.448;7.306;2023-12-20T02:28:38;49.65;;;33.83;;
4533;SDS011;2279;51.448;7.306;2023-12-20T02:31:04;42.17;;;32.67;;
4533;SDS011;2279;51.448;7.306;2023-12-20T02:33:30;35.67;;;31.77;;
4533;SDS011;2279;51.448;7.306;2023-12-20T02:35:56;25.25;;;22.60;;
4533;SDS011;2279;51.448;7.306;2023-12-20T02:38:22;33.67;;;31.07;;
4533;SDS011;2279;51.448;7.306;2023-12-20T02:40:48;17.03;;;15.63;;
4533;SDS011;2279;51.448;7.306;2023-12-20T02:43:14;29.57;;;27.47;;
4533;SDS011;2279;51.448;7.306;2023-12-20T02:45:40;31.83;;;29.23;;
4533;SDS011;2279;51.448;7.306;2023-12-20T02:48:06;19.50;;;17.85;;
4533;SDS011;2279;51.448;7.306;2023-12-20T02:50:32;24.33;;;22.10;;
4533;SDS011;2279;51.448;7.306;2023-12-20T02:52:58;40.47;;;34.73;;
4533;SDS011;2279;51.448;7.306;2023-12-20T02:55:24;25.97;;;23.87;;
4533;SDS011;2279;51.448;7.306;2023-12-20T02:57:50;39.90;;;36.70;;
4533;SDS011;2279;51.448;7.306;2023-12-20T03:00:16;18.40;;;16.90;;
4533;SDS011;2279;51.448;7.306;2023-12-20T03:02:42;24.42;;;22.23;;
4533;SDS011;2279;51.448;7.306;2023-12-20T03:05:08;45.40;;;40.50;;
4533;SDS011;2279;51.448;7.306;2023-12-20T03:07:34;45.47;;;41.23;;
4533;SDS011;2279;51.448;7.306;2023-12-20T03:10:02;36.50;;;34.05;;
4533;SDS011;2279;51.448;7.306;2023-12-20T03:12:28;45.25;;;40.53;;
4533;SDS011;2279;51.448;7.306;2023-12-20T03:14:54;59.50;;;52.47;;
4533;SDS011;2279;51.448;7.306;2023-12-20T03:17:20;19.57;;;17.87;;
4533;SDS011;2279;51.448;7.306;2023-12-20T03:19:46;32.15;;;29.58;;
4533;SDS011;2279;51.448;7.306;2023-12-20T03:22:11;28.70;;;26.70;;
4533;SDS011;2279;51.448;7.306;2023-12-20T03:24:37;31.37;;;29.13;;
4533;SDS011;2279;51.448;7.306;2023-12-20T03:27:03;22.67;;;20.77;;
4533;SDS011;2279;51.448;7.306;2023-12-20T03:29:29;31.80;;;29.40;;
4533;SDS011;2279;51.448;7.306;2023-12-20T03:31:55;20.87;;;19.23;;
4533;SDS011;2279;51.448;7.306;2023-12-20T03:34:21;14.13;;;12.80;;
4533;SDS011;2279;51.448;7.306;2023-12-20T03:36:47;33.60;;;31.20;;
4533;SDS011;2279;51.448;7.306;2023-12-20T03:39:13;16.23;;;14.70;;
4533;SDS011;2279;51.448;7.306;2023-12-20T03:41:39;16.63;;;15.23;;
4533;SDS011;2279;51.448;7.306;2023-12-20T03:44:05;24.90;;;22.80;;
4533;SDS011;2279;51.448;7.306;2023-12-20T03:46:31;19.07;;;17.37;;
4533;SDS011;2279;51.448;7.306;2023-12-20T03:48:57;18.97;;;17.50;;
4533;SDS011;2279;51.448;7.306;2023-12-20T03:51:23;20.23;;;18.53;;
4533;SDS011;2279;51.448;7.306;2023-12-20T03:53:49;34.60;;;32.00;;
4533;SDS011;2279;51.448;7.306;2023-12-20T03:56:15;40.03;;;36.00;;
4533;SDS011;2279;51.448;7.306;2023-12-20T03:58:41;17.60;;;16.10;;
4533;SDS011;2279;51.448;7.306;2023-12-20T04:01:10;37.33;;;32.20;;
4533;SDS011;2279;51.448;7.306;2023-12-20T04:03:39;180.55;;;53.85;;
4533;SDS011;2279;51.448;7.306;2023-12-20T04:06:05;66.25;;;37.13;;
4533;SDS011;2279;51.448;7.306;2023-12-20T04:08:31;46.83;;;41.75;;
4533;SDS011;2279;51.448;7.306;2023-12-20T04:10:59;46.55;;;41.55;;
4533;SDS011;2279;51.448;7.306;2023-12-20T04:13:25;43.50;;;36.67;;
4533;SDS011;2279;51.448;7.306;2023-12-20T04:15:51;52.47;;;40.00;;
4533;SDS011;2279;51.448;7.306;2023-12-20T04:18:17;135.55;;;42.70;;
4533;SDS011;2279;51.448;7.306;2023-12-20T04:20:43;177.27;;;52.40;;
4533;SDS011;2279;51.448;7.306;2023-12-20T04:23:09;131.13;;;41.78;;
4533;SDS011;2279;51.448;7.306;2023-12-20T04:25:35;130.93;;;40.77;;
4533;SDS011;2279;51.448;7.306;2023-12-20T04:28:01;132.37;;;40.77;;
4533;SDS011;2279;51.448;7.306;2023-12-20T04:30:27;118.30;;;43.40;;
4533;SDS011;2279;51.448;7.306;2023-12-20T04:32:53;160.20;;;49.63;;
4533;SDS011;2279;51.448;7.306;2023-12-20T04:35:19;147.57;;;47.70;;
4533;SDS011;2279;51.448;7.306;2023-12-20T04:37:45;127.50;;;41.33;;
4533;SDS011;2279;51.448;7.306;2023-12-20T04:40:12;146.75;;;47.72;;
4533;SDS011;2279;51.448;7.306;2023-12-20T04:42:38;159.02;;;50.08;;
4533;SDS011;2279;51.448;7.306;2023-12-20T04:45:04;120.43;;;40.80;;
4533;SDS011;2279;51.448;7.306;2023-12-20T04:47:30;93.68;;;35.53;;
4533;SDS011;2279;51.448;7.306;2023-12-20T04:49:56;15.23;;;13.70;;
4533;SDS011;2279;51.448;7.306;2023-12-20T04:52:22;108.13;;;37.95;;
4533;SDS011;2279;51.448;7.306;2023-12-20T04:54:48;116.47;;;38.72;;
4533;SDS011;2279;51.448;7.306;2023-12-20T04:57:14;106.40;;;36.92;;
4533;SDS011;2279;51.448;7.306;2023-12-20T04:59:40;102.37;;;34.50;;
4533;SDS011;2279;51.448;7.306;2023-12-20T05:02:06;94.93;;;35.78;;
4533;SDS011;2279;51.448;7.306;2023-12-20T05:04:32;107.07;;;37.90;;
4533;SDS011;2279;51.448;7.306;2023-12-20T05:06:58;104.80;;;36.90;;
4533;SDS011;2279;51.448;7.306;2023-12-20T05:09:24;61.57;;;32.40;;
4533;SDS011;2279;51.448;7.306;2023-12-20T05:11:50;69.37;;;34.80;;
4533;SDS011;2279;51.448;7.306;2023-12-20T05:14:16;46.07;;;28.80;;
4533;SDS011;2279;51.448;7.306;2023-12-20T05:16:42;71.10;;;33.80;;
4533;SDS011;2279;51.448;7.306;2023-12-20T05:19:08;62.63;;;32.90;;
4533;SDS011;2279;51.448;7.306;2023-12-20T05:21:34;41.45;;;38.00;;
4533;SDS011;2279;51.448;7.306;2023-12-20T05:24:00;36.88;;;33.92;;
4533;SDS011;2279;51.448;7.306;2023-12-20T05:26:26;39.87;;;36.37;;
4533;SDS011;2279;51.448;7.306;2023-12-20T05:28:54;35.47;;;33.22;;
4533;SDS011;2279;51.448;7.306;2023-12-20T05:31:20;37.63;;;35.20;;
4533;SDS011;2279;51.448;7.306;2023-12-20T05:33:46;38.60;;;35.83;;
4533;SDS011;2279;51.448;7.306;2023-12-20T05:36:12;37.60;;;34.75;;
4533;SDS011;2279;51.448;7.306;2023-12-20T05:38:40;38.75;;;35.92;;
4533;SDS011;2279;51.448;7.306;2023-12-20T05:41:06;39.27;;;36.20;;
4533;SDS011;2279;51.448;7.306;2023-12-20T05:43:32;39.58;;;36.47;;
4533;SDS011;2279;51.448;7.306;2023-12-20T05:45:57;38.33;;;35.17;;
4533;SDS011;2279;51.448;7.306;2023-12-20T05:48:23;37.27;;;34.13;;
4533;SDS011;2279;51.448;7.306;2023-12-20T05:50:49;39.27;;;36.20;;
4533;SDS011;2279;51.448;7.306;2023-12-20T05:53:15;39.83;;;36.90;;
4533;SDS011;2279;51.448;7.306;2023-12-20T05:55:41;41.17;;;37.80;;
4533;SDS011;2279;51.448;7.306;2023-12-20T05:58:07;42.37;;;39.17;;
4533;SDS011;2279;51.448;7.306;2023-12-20T06:00:33;44.20;;;40.83;;
4533;SDS011;2279;51.448;7.306;2023-12-20T06:02:59;39.33;;;36.33;;
4533;SDS011;2279;51.448;7.306;2023-12-20T06:05:25;40.50;;;37.55;;
4533;SDS011;2279;51.448;7.306;2023-12-20T06:07:51;40.78;;;37.70;;
4533;SDS011;2279;51.448;7.306;2023-12-20T06:10:17;40.50;;;37.17;;
4533;SDS011;2279;51.448;7.306;2023-12-20T06:12:43;29.03;;;27.27;;
4533;SDS011;2279;51.448;7.306;2023-12-20T06:15:10;36.20;;;33.65;;
4533;SDS011;2279;51.448;7.306;2023-12-20T06:17:35;40.80;;;37.63;;
4533;SDS011;2279;51.448;7.306;2023-12-20T06:20:01;36.40;;;33.50;;
4533;SDS011;2279;51.448;7.306;2023-12-20T06:22:32;44.33;;;40.83;;
4533;SDS011;2279;51.448;7.306;2023-12-20T06:24:58;43.60;;;40.00;;
4533;SDS011;2279;51.448;7.306;2023-12-20T06:27:24;43.40;;;39.83;;
4533;SDS011;2279;51.448;7.306;2023-12-20T06:29:50;47.87;;;36.60;;
4533;SDS011;2279;51.448;7.306;2023-12-20T06:32:16;37.80;;;32.07;;
4533;SDS011;2279;51.448;7.306;2023-12-20T06:34:42;51.10;;;32.50;;
4533;SDS011;2279;51.448;7.306;2023-12-20T06:37:08;52.95;;;33.53;;
4533;SDS011;2279;51.448;7.306;2023-12-20T06:39:34;58.00;;;33.72;;
4533;SDS011;2279;51.448;7.306;2023-12-20T06:42:00;54.03;;;32.85;;
4533;SDS011;2279;51.448;7.306;2023-12-20T06:44:26;64.20;;;33.07;;
4533;SDS011;2279;51.448;7.306;2023-12-20T06:46:52;43.80;;;29.47;;
4533;SDS011;2279;51.448;7.306;2023-12-20T06:49:18;54.28;;;32.83;;
4533;SDS011;2279;51.448;7.306;2023-12-20T06:51:44;62.07;;;33.70;;
4533;SDS011;2279;51.448;7.306;2023-12-20T06:54:10;48.20;;;32.67;;
4533;SDS011;2279;51.448;7.306;2023-12-20T06:56:36;47.87;;;31.27;;
4533;SDS011;2279;51.448;7.306;2023-12-20T06:59:02;44.13;;;31.97;;
4533;SDS011;2279;51.448;7.306;2023-12-20T07:01:27;35.30;;;30.40;;
4533;SDS011;2279;51.448;7.306;2023-12-20T07:03:53;17.10;;;15.50;;
4533;SDS011;2279;51.448;7.306;2023-12-20T07:06:19;44.13;;;32.90;;
4533;SDS011;2279;51.448;7.306;2023-12-20T07:08:45;47.08;;;31.85;;
4533;SDS011;2279;51.448;7.306;2023-12-20T07:11:11;41.70;;;31.38;;
4533;SDS011;2279;51.448;7.306;2023-12-20T07:13:37;42.73;;;31.33;;
4533;SDS011;2279;51.448;7.306;2023-12-20T07:16:03;51.47;;;33.07;;
4533;SDS011;2279;51.448;7.306;2023-12-20T07:18:29;40.22;;;31.83;;
4533;SDS011;2279;51.448;7.306;2023-12-20T07:20:55;39.20;;;31.77;;
4533;SDS011;2279;51.448;7.306;2023-12-20T07:23:21;41.47;;;32.00;;
4533;SDS011;2279;51.448;7.306;2023-12-20T07:25:47;27.88;;;25.00;;
4533;SDS011;2279;51.448;7.306;2023-12-20T07:28:13;27.88;;;25.38;;
4533;SDS011;2279;51.448;7.306;2023-12-20T07:30:39;49.63;;;44.73;;
4533;SDS011;2279;51.448;7.306;2023-12-20T07:33:05;40.97;;;36.87;;
4533;SDS011;2279;51.448;7.306;2023-12-20T07:35:33;43.92;;;39.83;;
4533;SDS011;2279;51.448;7.306;2023-12-20T07:37:59;43.80;;;39.60;;
4533;SDS011;2279;51.448;7.306;2023-12-20T07:40:26;46.25;;;41.95;;
4533;SDS011;2279;51.448;7.306;2023-12-20T07:42:52;48.53;;;43.43;;
4533;SDS011;2279;51.448;7.306;2023-12-20T07:45:17;47.77;;;42.77;;
4533;SDS011;2279;51.448;7.306;2023-12-20T07:47:43;46.40;;;41.50;;
4533;SDS011;2279;51.448;7.306;2023-12-20T07:50:09;49.60;;;40.37;;
4533;SDS011;2279;51.448;7.306;2023-12-20T07:52:35;49.33;;;44.03;;
4533;SDS011;2279;51.448;7.306;2023-12-20T07:55:01;44.73;;;39.83;;
4533;SDS011;2279;51.448;7.306;2023-12-20T07:57:30;46.58;;;41.65;;
4533;SDS011;2279;51.448;7.306;2023-12-20T07:59:56;45.10;;;37.67;;
4533;SDS011;2279;51.448;7.306;2023-12-20T08:02:22;46.67;;;41.67;;
4533;SDS011;2279;51.448;7.306;2023-12-20T08:04:48;31.90;;;29.20;;
4533;SDS011;2279;51.448;7.306;2023-12-20T08:07:14;26.80;;;24.30;;
4533;SDS011;2279;51.448;7.306;2023-12-20T08:09:40;29.48;;;26.75;;
4533;SDS011;2279;51.448;7.306;2023-12-20T08:12:08;20.40;;;18.70;;
4533;SDS011;2279;51.448;7.306;2023-12-20T08:14:34;25.27;;;22.40;;
4533;SDS011;2279;51.448;7.306;2023-12-20T08:17:00;29.33;;;26.23;;
4533;SDS011;2279;51.448;7.306;2023-12-20T08:19:26;22.27;;;19.87;;
4533;SDS011;2279;51.448;7.306;2023-12-20T08:21:52;49.27;;;43.87;;
4533;SDS011;2279;51.448;7.306;2023-12-20T08:24:18;46.00;;;40.83;;
4533;SDS011;2279;51.448;7.306;2023-12-20T08:26:44;29.40;;;26.30;;
4533;SDS011;2279;51.448;7.306;2023-12-20T08:29:12;44.15;;;39.42;;
4533;SDS011;2279;51.448;7.306;2023-12-20T08:31:38;43.00;;;35.58;;
4533;SDS011;2279;51.448;7.306;2023-12-20T08:34:04;13.97;;;12.63;;
4533;SDS011;2279;51.448;7.306;2023-12-20T08:36:30;15.77;;;14.43;;
4533;SDS011;2279;51.448;7.306;2023-12-20T08:38:56;12.27;;;11.30;;
4533;SDS011;2279;51.448;7.306;2023-12-20T08:41:22;17.50;;;15.97;;
4533;SDS011;2279;51.448;7.306;2023-12-20T08:43:48;31.67;;;28.27;;
4533;SDS011;2279;51.448;7.306;2023-12-20T08:46:14;16.65;;;15.15;;
4533;SDS011;2279;51.448;7.306;2023-12-20T08:48:40;17.08;;;15.68;;
4533;SDS011;2279;51.448;7.306;2023-12-20T08:51:06;34.00;;;30.77;;
4533;SDS011;2279;51.448;7.306;2023-12-20T08:53:33;34.53;;;31.23;;
4533;SDS011;2279;51.448;7.306;2023-12-20T08:55:59;21.55;;;20.05;;
4533;SDS011;2279;51.448;7.306;2023-12-20T08:58:26;12.23;;;11.13;;
4533;SDS011;2279;51.448;7.306;2023-12-20T09:00:52;46.63;;;35.65;;
4533;SDS011;2279;51.448;7.306;2023-12-20T09:03:18;30.10;;;27.20;;
4533;SDS011;2279;51.448;7.306;2023-12-20T09:05:44;31.73;;;28.57;;
4533;SDS011;2279;51.448;7.306;2023-12-20T09:08:10;14.50;;;13.37;;
4533;SDS011;2279;51.448;7.306;2023-12-20T09:10:37;18.08;;;16.48;;
4533;SDS011;2279;51.448;7.306;2023-12-20T09:13:03;16.02;;;14.68;;
4533;SDS011;2279;51.448;7.306;2023-12-20T09:15:29;17.35;;;16.05;;
4533;SDS011;2279;51.448;7.306;2023-12-20T09:17:55;15.03;;;13.67;;
4533;SDS011;2279;51.448;7.306;2023-12-20T09:20:21;42.97;;;38.13;;
4533;SDS011;2279;51.448;7.306;2023-12-20T09:22:48;34.88;;;31.52;;
4533;SDS011;2279;51.448;7.306;2023-12-20T09:25:14;18.63;;;17.15;;
4533;SDS011;2279;51.448;7.306;2023-12-20T09:27:42;26.83;;;24.73;;
4533;SDS011;2279;51.448;7.306;2023-12-20T09:30:08;14.90;;;13.68;;
4533;SDS011;2279;51.448;7.306;2023-12-20T09:32:34;16.27;;;15.18;;
4533;SDS011;2279;51.448;7.306;2023-12-20T09:35:01;15.90;;;14.73;;
4533;SDS011;2279;51.448;7.306;2023-12-20T09:37:27;17.30;;;15.90;;
4533;SDS011;2279;51.448;7.306;2023-12-20T09:39:54;34.97;;;32.05;;
4533;SDS011;2279;51.448;7.306;2023-12-20T09:42:31;19.52;;;18.10;;
4533;SDS011;2279;51.448;7.306;2023-12-20T09:44:57;36.40;;;33.00;;
4533;SDS011;2279;51.448;7.306;2023-12-20T09:47:26;18.73;;;17.50;;
4533;SDS011;2279;51.448;7.306;2023-12-20T09:49:52;15.65;;;14.35;;
4533;SDS011;2279;51.448;7.306;2023-12-20T09:52:18;26.35;;;23.58;;
4533;SDS011;2279;51.448;7.306;2023-12-20T09:54:45;24.20;;;22.50;;
4533;SDS011;2279;51.448;7.306;2023-12-20T09:57:13;16.52;;;15.43;;
4533;SDS011;2279;51.448;7.306;2023-12-20T09:59:40;19.37;;;17.97;;
4533;SDS011;2279;51.448;7.306;2023-12-20T10:02:06;36.22;;;32.55;;
4533;SDS011;2279;51.448;7.306;2023-12-20T10:04:35;27.75;;;25.52;;
4533;SDS011;2279;51.448;7.306;2023-12-20T10:07:03;24.37;;;22.77;;
4533;SDS011;2279;51.448;7.306;2023-12-20T10:09:30;16.95;;;15.73;;
4533;SDS011;2279;51.448;7.306;2023-12-20T10:11:57;44.67;;;38.88;;
4533;SDS011;2279;51.448;7.306;2023-12-20T10:14:23;39.67;;;37.13;;
4533;SDS011;2279;51.448;7.306;2023-12-20T10:16:49;34.20;;;32.40;;
4533;SDS011;2279;51.448;7.306;2023-12-20T10:19:19;42.50;;;39.73;;
4533;SDS011;2279;51.448;7.306;2023-12-20T10:21:45;44.42;;;41.67;;
4533;SDS011;2279;51.448;7.306;2023-12-20T10:24:16;36.78;;;34.65;;
4533;SDS011;2279;51.448;7.306;2023-12-20T10:26:42;36.58;;;34.47;;
4533;SDS011;2279;51.448;7.306;2023-12-20T10:29:08;34.47;;;32.57;;
4533;SDS011;2279;51.448;7.306;2023-12-20T10:31:35;35.45;;;33.40;;
4533;SDS011;2279;51.448;7.306;2023-12-20T10:34:03;36.17;;;34.03;;
4533;SDS011;2279;51.448;7.306;2023-12-20T10:36:30;38.80;;;36.50;;
4533;SDS011;2279;51.448;7.306;2023-12-20T10:38:57;34.72;;;32.63;;
4533;SDS011;2279;51.448;7.306;2023-12-20T10:41:27;42.03;;;39.13;;
4533;SDS011;2279;51.448;7.306;2023-12-20T10:43:54;41.00;;;38.20;;
4533;SDS011;2279;51.448;7.306;2023-12-20T10:46:20;45.88;;;42.70;;
4533;SDS011;2279;51.448;7.306;2023-12-20T10:48:46;39.80;;;37.13;;
4533;SDS011;2279;51.448;7.306;2023-12-20T10:51:13;37.10;;;34.60;;
4533;SDS011;2279;51.448;7.306;2023-12-20T10:53:39;44.75;;;41.50;;
4533;SDS011;2279;51.448;7.306;2023-12-20T10:56:06;43.05;;;39.90;;
4533;SDS011;2279;51.448;7.306;2023-12-20T10:58:33;44.00;;;40.78;;
4533;SDS011;2279;51.448;7.306;2023-12-20T11:01:01;42.95;;;39.70;;
4533;SDS011;2279;51.448;7.306;2023-12-20T11:03:27;43.33;;;39.90;;
4533;SDS011;2279;51.448;7.306;2023-12-20T11:08:47;39.78;;;36.80;;
4533;SDS011;2279;51.448;7.306;2023-12-20T11:11:20;40.45;;;37.63;;
4533;SDS011;2279;51.448;7.306;2023-12-20T11:13:48;35.20;;;32.90;;
4533;SDS011;2279;51.448;7.306;2023-12-20T11:16:19;40.38;;;37.67;;
4533;SDS011;2279;51.448;7.306;2023-12-20T11:18:45;34.25;;;32.05;;
4533;SDS011;2279;51.448;7.306;2023-12-20T11:21:11;38.60;;;35.90;;
4533;SDS011;2279;51.448;7.306;2023-12-20T11:23:39;42.10;;;39.28;;
4533;SDS011;2279;51.448;7.306;2023-12-20T11:26:07;42.42;;;39.22;;
4533;SDS011;2279;51.448;7.306;2023-12-20T11:28:33;45.00;;;41.70;;
4533;SDS011;2279;51.448;7.306;2023-12-20T11:31:00;42.77;;;39.27;;
4533;SDS011;2279;51.448;7.306;2023-12-20T11:33:30;43.50;;;40.10;;
4533;SDS011;2279;51.448;7.306;2023-12-20T11:35:57;45.10;;;41.10;;
4533;SDS011;2279;51.448;7.306;2023-12-20T11:38:23;44.28;;;40.58;;
4533;SDS011;2279;51.448;7.306;2023-12-20T11:40:49;42.50;;;38.80;;
4533;SDS011;2279;51.448;7.306;2023-12-20T11:43:31;41.58;;;38.00;;
4533;SDS011;2279;51.448;7.306;2023-12-20T11:46:02;42.38;;;38.67;;
4533;SDS011;2279;51.448;7.306;2023-12-20T11:48:28;43.45;;;39.65;;
4533;SDS011;2279;51.448;7.306;2023-12-20T11:50:56;43.40;;;39.70;;
4533;SDS011;2279;51.448;7.306;2023-12-20T11:53:22;46.75;;;42.92;;
4533;SDS011;2279;51.448;7.306;2023-12-20T11:55:51;41.63;;;38.17;;
4533;SDS011;2279;51.448;7.306;2023-12-20T11:58:17;38.95;;;36.05;;
4533;SDS011;2279;51.448;7.306;2023-12-20T12:00:43;39.27;;;36.17;;
4533;SDS011;2279;51.448;7.306;2023-12-20T12:03:09;44.80;;;41.13;;
4533;SDS011;2279;51.448;7.306;2023-12-20T12:05:35;46.63;;;42.47;;
4533;SDS011;2279;51.448;7.306;2023-12-20T12:08:01;42.67;;;39.00;;
4533;SDS011;2279;51.448;7.306;2023-12-20T12:10:28;52.20;;;47.50;;
4533;SDS011;2279;51.448;7.306;2023-12-20T12:12:55;39.33;;;35.70;;
4533;SDS011;2279;51.448;7.306;2023-12-20T12:15:21;43.58;;;39.88;;
4533;SDS011;2279;51.448;7.306;2023-12-20T12:17:56;42.78;;;39.08;;
4533;SDS011;2279;51.448;7.306;2023-12-20T12:20:22;45.40;;;41.60;;
4533;SDS011;2279;51.448;7.306;2023-12-20T12:23:02;49.42;;;45.28;;
4533;SDS011;2279;51.448;7.306;2023-12-20T12:25:28;40.70;;;37.40;;
4533;SDS011;2279;51.448;7.306;2023-12-20T12:27:55;51.20;;;46.70;;
4533;SDS011;2279;51.448;7.306;2023-12-20T12:30:21;44.50;;;40.50;;
4533;SDS011;2279;51.448;7.306;2023-12-20T12:32:47;49.55;;;45.03;;
4533;SDS011;2279;51.448;7.306;2023-12-20T12:35:14;49.88;;;45.28;;
4533;SDS011;2279;51.448;7.306;2023-12-20T12:37:41;47.30;;;42.83;;
4533;SDS011;2279;51.448;7.306;2023-12-20T12:40:10;48.72;;;44.30;;
4533;SDS011;2279;51.448;7.306;2023-12-20T12:42:36;45.97;;;41.78;;
4533;SDS011;2279;51.448;7.306;2023-12-20T12:45:02;45.97;;;41.67;;
4533;SDS011;2279;51.448;7.306;2023-12-20T12:47:29;44.67;;;40.33;;
4533;SDS011;2279;51.448;7.306;2023-12-20T12:49:55;40.63;;;36.63;;
4533;SDS011;2279;51.448;7.306;2023-12-20T12:52:21;45.35;;;41.38;;
4533;SDS011;2279;51.448;7.306;2023-12-20T12:54:47;44.03;;;40.30;;
4533;SDS011;2279;51.448;7.306;2023-12-20T12:57:14;45.47;;;41.47;;
4533;SDS011;2279;51.448;7.306;2023-12-20T12:59:41;43.35;;;39.80;;
4533;SDS011;2279;51.448;7.306;2023-12-20T13:02:07;48.72;;;44.13;;
4533;SDS011;2279;51.448;7.306;2023-12-20T13:04:33;39.03;;;35.20;;
4533;SDS011;2279;51.448;7.306;2023-12-20T13:06:59;48.03;;;43.70;;
4533;SDS011;2279;51.448;7.306;2023-12-20T13:09:25;43.25;;;39.53;;
4533;SDS011;2279;51.448;7.306;2023-12-20T13:11:51;44.30;;;40.57;;
4533;SDS011;2279;51.448;7.306;2023-12-20T13:14:17;43.47;;;39.83;;
4533;SDS011;2279;51.448;7.306;2023-12-20T13:16:43;43.57;;;39.97;;
4533;SDS011;2279;51.448;7.306;2023-12-20T13:19:11;48.53;;;44.53;;
4533;SDS011;2279;51.448;7.306;2023-12-20T13:21:37;43.70;;;40.00;;
4533;SDS011;2279;51.448;7.306;2023-12-20T13:24:03;46.75;;;43.05;;
4533;SDS011;2279;51.448;7.306;2023-12-20T13:26:29;45.28;;;41.67;;
4533;SDS011;2279;51.448;7.306;2023-12-20T13:28:55;42.45;;;38.92;;
4533;SDS011;2279;51.448;7.306;2023-12-20T13:31:21;34.23;;;31.23;;
4533;SDS011;2279;51.448;7.306;2023-12-20T13:33:47;47.77;;;43.67;;
4533;SDS011;2279;51.448;7.306;2023-12-20T13:36:13;47.57;;;43.47;;
4533;SDS011;2279;51.448;7.306;2023-12-20T13:38:39;49.63;;;45.17;;
4533;SDS011;2279;51.448;7.306;2023-12-20T13:41:05;43.50;;;39.40;;
4533;SDS011;2279;51.448;7.306;2023-12-20T13:43:31;44.40;;;40.00;;
4533;SDS011;2279;51.448;7.306;2023-12-20T13:45:58;47.25;;;42.97;;
4533;SDS011;2279;51.448;7.306;2023-12-20T13:48:24;45.88;;;41.70;;
4533;SDS011;2279;51.448;7.306;2023-12-20T13:50:50;49.40;;;44.70;;
4533;SDS011;2279;51.448;7.306;2023-12-20T13:53:16;45.33;;;41.13;;
4533;SDS011;2279;51.448;7.306;2023-12-20T13:55:42;42.85;;;38.85;;
4533;SDS011;2279;51.448;7.306;2023-12-20T13:58:08;43.80;;;39.37;;
4533;SDS011;2279;51.448;7.306;2023-12-20T14:00:37;43.05;;;39.05;;
4533;SDS011;2279;51.448;7.306;2023-12-20T14:03:03;43.72;;;39.70;;
4533;SDS011;2279;51.448;7.306;2023-12-20T14:05:29;46.75;;;42.47;;
4533;SDS011;2279;51.448;7.306;2023-12-20T14:07:55;46.80;;;42.47;;
4533;SDS011;2279;51.448;7.306;2023-12-20T14:10:25;46.90;;;42.72;;
4533;SDS011;2279;51.448;7.306;2023-12-20T14:12:51;43.50;;;39.38;;
4533;SDS011;2279;51.448;7.306;2023-12-20T14:15:17;45.22;;;40.95;;
4533;SDS011;2279;51.448;7.306;2023-12-20T14:17:43;27.25;;;24.65;;
4533;SDS011;2279;51.448;7.306;2023-12-20T14:20:09;10.60;;;9.60;;
4533;SDS011;2279;51.448;7.306;2023-12-20T14:22:38;8.48;;;7.75;;
4533;SDS011;2279;51.448;7.306;2023-12-20T14:25:08;9.05;;;8.15;;
4533;SDS011;2279;51.448;7.306;2023-12-20T14:27:36;8.82;;;8.05;;
4533;SDS011;2279;51.448;7.306;2023-12-20T14:30:02;9.45;;;8.52;;
4533;SDS011;2279;51.448;7.306;2023-12-20T14:32:28;53.60;;;26.45;;
4533;SDS011;2279;51.448;7.306;2023-12-20T14:34:54;65.67;;;33.37;;
4533;SDS011;2279;51.448;7.306;2023-12-20T14:37:20;56.53;;;37.53;;
4533;SDS011;2279;51.448;7.306;2023-12-20T14:39:46;38.57;;;29.83;;
4533;SDS011;2279;51.448;7.306;2023-12-20T14:42:12;35.37;;;30.30;;
4533;SDS011;2279;51.448;7.306;2023-12-20T14:44:39;48.58;;;35.75;;